Terminal Aerodrome Forecast
Issued by NWS

Home | Current Version | Previous Version | Graphics & Text | Print | Product List | Glossary On
Versions: 1 2 3 4 5 6 7 8 9 10 11 12 13 14 15 16 17 18 19 20 21 22 23 24 25
000
FTUS43 KABR 261732
TAFPIR
TAF
KPIR 261732Z 2618/2718 05012KT P6SM VCSH OVC015
     FM262200 06014KT P6SM -SHRA OVC010
     FM270000 05014KT P6SM -SHRA OVC008
     FM270500 05014KT 5SM SHRA BR OVC003
     FM271200 04019KT 3SM RA OVC008=

USA.gov is the U.S. government's official web portal to all federal, state and local government web resources and services.